Strona główna
METAR-TAF:

METAR-TAF

Lotnisko :

Port lotniczy Ouro Sogui

Matam, Senegal

Szerokość geograficzna: 15-39N, Długość geograficzna: 013-15W, wysokość: 15 m

Aktualna obserwacja pogody

Raport powstał 1 godzina i 14 minut temu, godzina 18:00 UTC
Wiatr 6 kt od zachód
Temperatura 35°C
Wilgotność 56%
Ciśnienie 1006 hPa
Widzialność 10 km lub więcej
Brak chmur poniżej 1500 m i brak chmur cumulonimbus

METAR: GOSM 201800Z 28006KT CAVOK 35/25 Q1006

czas: 19:14 (19:14 UTC)


TAF: brakujący

Obserwacja i prognoza pogody dla ponad 4000 lotnisk (raport METAR i TAF).

Dostępne stacje oznaczono żółtymi i czerwonymi punktami na mapie.

Najedź kursorem aby zobaczyć nazwę stacji.

Kliknij aby zobaczyć obserwacje i prognozy pogody.

Aby zmienić mapę: kliknij na zielony przycisk z czarnym krzyżykiem, aby powiększyć; na zielony przycisk z myślnikiem, aby pomniejszyć; na zielone strzałki, aby przejść do map sąsiednich.


METAR-TAF: